Situs API Video Gratis Terbaik

AVDBAPI.COM

Cari katalog, periksa data, dan salin URL API bersih dari satu dasbor cepat.

Telegram Gabung komunitas Telegram untuk update!
Today
64
Pembaruan Hari Ini
Censored
313974
Video Disensor
Total
474107
Total Video

Daftar Video

Data terbaru diurutkan berdasarkan waktu pembaruan.

ID Nama CODE Kategori Diperbarui API
268309 K1443 Wanita Mangsa K1443 Tanpa sensor 2025-08-29 13:16:30 API
268308 092418_747 Koleksi Model Seksi Mikako Minami 092418_747 Tanpa sensor 2025-08-29 13:16:20 API
268307 HEYZO-2271 Godaan cabul pelacur matang Agel membuatmu klimaks dengan kata-kata kotornya! HEYZO-2271 Tanpa sensor 2025-08-29 13:16:10 API
268306 041319-069 Penampilan Gagal! Wanita Matang Berkacamata Hitam 2 041319-069 Tanpa sensor 2025-08-29 13:16:00 API
268305 H4610-ORI1750 Ayane Takubo, Gadis 21 Tahun H4610-ORI1750 Tanpa sensor 2025-08-29 13:15:50 API
268304 111619-01 Demi biaya cari kerja, pramugari ini rela mengangkang dan buka kemaluan demi uang 111619-01 Tanpa sensor 2025-08-29 13:15:40 API
268303 071720-001 Paviliun Relaksasi Mewah ~ Melayani Si Masokis Sensual Dengan Payudara H Cup ~ Riina Okamoto 071720-001 Tanpa sensor 2025-08-29 13:15:30 API
268302 FC2-PPV-4464531 Penampilan Pertama! Terbatas 3 Hari Saja! Wanita mesum yang suka petualangan dengan pria asing, mengekspresikan hasrat liarnya setiap hari... wanita dengan kecenderungan pervert sejati FC2-PPV-4464531 Tanpa sensor 2025-08-29 13:15:20 API
268301 H0930-KI200510 Wanita Seksi 38 Tahun Makoto Kobori H0930-KI200510 Tanpa sensor 2025-08-29 13:15:10 API
268300 K1444 Wanita Mangsa K1444 Tanpa sensor 2025-08-29 13:15:00 API
268298 HEYZO-2272 Aku bakal kasih kamu pie bareng Nanako Asahina! HEYZO-2272 Tanpa sensor 2025-08-29 13:14:40 API
268297 092618_748 Chinguri kembali dengan aksi main anal dan blowjob spesial 092618_748 Tanpa sensor 2025-08-29 13:14:30 API
268296 041319-068 Kasus Yui Mihashi yang Ejakulasi di Atas Payudara Istrinya 041319-068 Tanpa sensor 2025-08-29 13:14:20 API
268295 HEYZO-2293 Madoka [Madoka] Amatir Nipple Pink Mulai Dengan Oral Seks Yang Nikmat HEYZO-2293 Tanpa sensor 2025-08-29 13:14:10 API
268294 111919-01 Si Cantik Ramping Yang Masih Perawan Dibanjiri Sperma Terus Menerus 111919-01 Tanpa sensor 2025-08-29 13:14:00 API
268293 H4610-KI210228 Miki Momoi Usia 27 Tahun H4610-KI210228 Tanpa sensor 2025-08-29 13:13:50 API
268292 C0930-KI191116 Gold Pack Spesial Gadis 20 Tahun C0930-KI191116 Tanpa sensor 2025-08-29 13:13:40 API
268291 FC2-PPV-4464411 Kakak Cantik Berbadan Tinggi Langsing dengan Senyum Menggoda FC2-PPV-4464411 Tanpa sensor 2025-08-29 13:13:30 API
268290 H0930-KI200512 Kana Miyagi Wanita 30 Tahun Yang Seksi H0930-KI200512 Tanpa sensor 2025-08-29 13:13:20 API
268289 071820-001 Tantangan Minum Sampai Habis: Lepas Baju! Hisap! Telan Semua Sperma! ~ Chisato Takayama dan Nana Ueyama 071820-001 Tanpa sensor 2025-08-29 13:13:10 API
268287 092018_745 Wanita China Rambut Putih Salju yang Seksi 092018_745 Tanpa sensor 2025-08-29 13:12:50 API
268286 041619-070 Wanita matang yang tidak cantik tapi sangat haus ingin dikentot 041619-070 Tanpa sensor 2025-08-29 13:12:40 API
268285 C0930-KI191119 Azusa Hatanaka Wanita Matang 40 Tahun yang Seksi C0930-KI191119 Tanpa sensor 2025-08-29 13:12:30 API
268284 112119-01 Amatir Tanpa Makeup ~ Jangan Lihat ~ 112119-01 Tanpa sensor 2025-08-29 13:12:20 API
268283 HEYZO-2273 Pinggang Menggoda Wanita Idaman HEYZO-2273 Tanpa sensor 2025-08-29 13:12:10 API
268282 H4610-KI210227 Koleksi Video Request Paling Hot H4610-KI210227 Tanpa sensor 2025-08-29 13:12:00 API
268281 H0930-KI200514 Ritsuko Harada Usia 32 Tahun H0930-KI200514 Tanpa sensor 2025-08-29 13:11:50 API
268280 072120-001 Rino Sakuragi, istri cantik yang terlalu polos hingga membiarkan tamu melihat tubuh telanjangnya 072120-001 Tanpa sensor 2025-08-29 13:11:40 API
268279 100218_750 Hidup Bersama Dan Encer Creampie Saat Selingkuh Ketika Suami Sedang Pergi 100218_750 Tanpa sensor 2025-08-29 13:11:30 API
268278 041819-071 Dokumentasi Syuting Pertama Istri Amatir Michiko Doi 041819-071 Tanpa sensor 2025-08-29 13:11:20 API
268277 C0930-KI191121 Michiru Saeki Wanita Matang 43 Tahun C0930-KI191121 Tanpa sensor 2025-08-29 13:11:10 API
268276 FC2-PPV-4464501 Aoki sangat populer di kalangan ibu rumah tangga di Tagura dengan 10.000 pengikut. Aku akan melayani hasratmu! Tapi sebenarnya aku adalah wanita bersuami yang menjijikkan karena suka masturbasi di tempat umum FC2-PPV-4464501 Tanpa sensor 2025-08-29 13:11:00 API
268275 HEYZO-2274 Aku memeluk kakak perempuan teman cowokku! HEYZO-2274 Tanpa sensor 2025-08-29 13:10:50 API
268274 112219-01 Koleksi Pussy Pilihan - Silakan Lihat Pussy Milik Yui - 112219-01 Tanpa sensor 2025-08-29 13:10:40 API
268273 100418_751 Koleksi Model Seksi Louis Hayakawa 100418_751 Tanpa sensor 2025-08-29 13:10:30 API
268272 H0930-TK0017 Mikiko Ogata Wanita Matang 37 Tahun H0930-TK0017 Tanpa sensor 2025-08-29 13:10:20 API
268271 H4610-KI210302 Sarina Takahashi, Gadis Hot 22 Tahun H4610-KI210302 Tanpa sensor 2025-08-29 13:10:10 API
268270 K1445 Wanita Mangsa - K1445 Tanpa sensor 2025-08-29 13:10:00 API
268269 072220-001 Video Unreleased yang Belum Pernah Dirilis 072220-001 Tanpa sensor 2025-08-29 13:09:50 API
268268 C0930-KI191123 Video Selfie Masturbasi yang Sangat Menggairahkan C0930-KI191123 Tanpa sensor 2025-08-29 13:09:40 API
268267 112319-01 Habis nonton AV, aku jadi pengen coba tantangan nelan sperma 112319-01 Tanpa sensor 2025-08-29 13:09:30 API
268266 FC2-PPV-4464153 Model Terkenal dan 49.000 Orang Terobsesi Datang ke Universitas Kaiwaka. Gadis Kedua Bertubuh Langsing dan Cantik Sekali FC2-PPV-4464153 Tanpa sensor 2025-08-29 13:09:20 API
268265 HEYZO-2275 May Doll Vol.16 ~ Boneka May ~ Boneka Seks Penurut Milik Sang Tuan ~ HEYZO-2275 Tanpa sensor 2025-08-29 13:09:10 API
268264 042019-073 Kamera Tersembunyi Ibu Rumah Tangga 25 ~ Mata Ditutup Lalu Dikentot Suami!? ~ 042019-073 Tanpa sensor 2025-08-29 13:09:00 API
268263 100618_752 Cumshot Ekstrem Bersama Kotomi Yamasaki 100618_752 Tanpa sensor 2025-08-29 13:08:50 API
268262 C0930-HITOZUMA1300 Haruka Fuwa Wanita 29 Tahun C0930-HITOZUMA1300 Tanpa sensor 2025-08-29 13:08:40 API
268261 072420-001 Pingsan Karena Nikmat! Pak Aoyama ~ Guru baru yang ingin diajari dengan semburan sperma di vagina ~ Hana Aoyama 072420-001 Tanpa sensor 2025-08-29 13:08:30 API
268260 H0930-KI200517 Wanita Cantik 29 Tahun Hitoe Kanamori H0930-KI200517 Tanpa sensor 2025-08-29 13:08:20 API
268259 SKY-235 Sky Angel 146: Inilah Dia SKY-235 Tanpa sensor 2025-08-29 13:08:10 API
268258 112619-01 Cara Gadis Ini Bekerja ~ Tolong Ukur Payudara Besar yang Seksi ini ~ 112619-01 Tanpa sensor 2025-08-29 13:08:00 API